createdAt,value
2023-05-25T00:03:55.439Z,6.20
2023-05-25T00:08:48.872Z,6.10
2023-05-25T00:13:41.134Z,6.23
2023-05-25T00:18:33.301Z,5.80
2023-05-25T00:23:25.423Z,6.40
2023-05-25T00:28:17.694Z,5.93
2023-05-25T00:33:13.202Z,6.23
2023-05-25T00:38:05.487Z,6.20
2023-05-25T00:42:59.636Z,6.90
2023-05-25T00:47:53.244Z,7.87
2023-05-25T00:52:45.531Z,7.10
2023-05-25T00:57:40.209Z,7.37
2023-05-25T01:02:33.948Z,6.70
2023-05-25T01:12:46.667Z,6.43
2023-05-25T01:17:39.129Z,6.77
2023-05-25T01:22:51.957Z,6.93
2023-05-25T01:28:05.657Z,6.70
2023-05-25T01:32:59.253Z,6.77
2023-05-25T01:37:52.490Z,7.00
2023-05-25T01:42:44.649Z,6.73
2023-05-25T01:47:49.032Z,6.63
2023-05-25T01:52:59.135Z,7.37
2023-05-25T01:57:53.682Z,7.40
2023-05-25T02:02:47.793Z,7.63
2023-05-25T02:07:39.917Z,7.57
2023-05-25T02:12:32.358Z,6.60
2023-05-25T02:17:28.129Z,6.30
2023-05-25T02:22:22.000Z,7.37
2023-05-25T02:27:15.397Z,8.07
2023-05-25T02:32:08.028Z,7.33
2023-05-25T02:37:01.672Z,9.43
2023-05-25T02:41:54.240Z,7.80
2023-05-25T02:46:46.529Z,8.33
2023-05-25T02:51:38.793Z,8.70
2023-05-25T02:56:31.399Z,8.03
2023-05-25T03:01:25.655Z,8.03
2023-05-25T03:06:21.616Z,7.53
2023-05-25T03:11:15.919Z,8.27
2023-05-25T03:16:09.257Z,9.17
2023-05-25T03:21:01.393Z,8.30
2023-05-25T03:25:53.783Z,8.80
2023-05-25T03:30:47.236Z,8.27
2023-05-25T03:35:41.718Z,7.40
2023-05-25T03:40:33.994Z,7.00
2023-05-25T03:45:26.232Z,7.37
2023-05-25T03:50:18.584Z,6.80
2023-05-25T03:55:12.136Z,6.90
2023-05-25T04:00:05.368Z,6.70
2023-05-25T04:05:06.086Z,12.60
2023-05-25T04:09:59.741Z,8.07
2023-05-25T04:14:52.336Z,18.60
2023-05-25T04:19:44.766Z,6.57
2023-05-25T04:24:36.908Z,5.27
2023-05-25T04:29:29.356Z,5.40
2023-05-25T04:34:33.980Z,4.23
2023-05-25T04:39:30.927Z,4.27
2023-05-25T04:44:24.369Z,4.47
2023-05-25T04:49:19.051Z,4.43
2023-05-25T04:54:11.407Z,4.10
2023-05-25T04:59:04.472Z,4.37
2023-05-25T05:03:57.294Z,4.53
2023-05-25T05:08:49.811Z,5.00
2023-05-25T05:13:42.468Z,4.67
2023-05-25T05:18:34.689Z,4.50
2023-05-25T05:23:27.353Z,4.20
2023-05-25T05:28:20.125Z,4.43
2023-05-25T05:33:12.551Z,4.30
2023-05-25T05:38:10.960Z,4.60
2023-05-25T05:43:03.200Z,4.57
2023-05-25T05:47:55.297Z,4.63
2023-05-25T05:52:48.168Z,4.80
2023-05-25T05:57:40.269Z,4.68
2023-05-25T06:02:32.677Z,4.20
2023-05-25T06:07:24.916Z,4.68
2023-05-25T06:12:17.103Z,4.50
2023-05-25T06:17:09.406Z,5.05
2023-05-25T06:22:01.497Z,4.93
2023-05-25T06:26:53.678Z,4.60
2023-05-25T06:31:46.079Z,4.70
2023-05-25T06:36:38.304Z,4.97
2023-05-25T06:41:31.013Z,4.68
2023-05-25T06:46:23.500Z,4.93
2023-05-25T06:51:17.172Z,4.32
2023-05-25T06:56:09.325Z,4.28
2023-05-25T07:01:01.789Z,4.30
2023-05-25T07:05:53.990Z,4.05
2023-05-25T07:10:47.493Z,4.90
2023-05-25T07:15:40.774Z,4.03
2023-05-25T07:20:34.529Z,4.53
2023-05-25T07:25:26.739Z,4.13
2023-05-25T07:30:18.911Z,4.00
2023-05-25T07:35:11.305Z,3.70
2023-05-25T07:40:05.180Z,4.40
2023-05-25T07:44:58.029Z,4.03
2023-05-25T07:49:50.266Z,4.00
2023-05-25T07:54:42.844Z,3.22
2023-05-25T07:59:35.737Z,3.15
2023-05-25T08:04:28.436Z,4.15
2023-05-25T08:09:22.088Z,3.50
2023-05-25T08:14:14.306Z,3.60
2023-05-25T08:19:06.555Z,3.38
2023-05-25T08:23:58.659Z,3.33
2023-05-25T08:28:50.841Z,3.97
2023-05-25T08:33:43.109Z,3.70
2023-05-25T08:38:35.221Z,3.35
2023-05-25T08:43:27.328Z,3.47
2023-05-25T08:53:19.196Z,3.70
2023-05-25T08:58:21.277Z,2.70
2023-05-25T09:03:20.117Z,3.60
2023-05-25T09:08:13.723Z,3.83
2023-05-25T09:13:20.321Z,3.38
2023-05-25T09:18:13.883Z,3.55
2023-05-25T09:23:06.256Z,3.60
2023-05-25T09:28:02.928Z,4.03
2023-05-25T09:33:12.840Z,3.17
2023-05-25T09:38:08.840Z,3.50
2023-05-25T09:43:02.731Z,3.45
2023-05-25T09:47:56.648Z,4.03
2023-05-25T09:52:48.988Z,3.63
2023-05-25T09:57:41.275Z,3.83
2023-05-25T10:02:33.687Z,4.75
2023-05-25T10:07:27.281Z,3.30
2023-05-25T10:12:22.381Z,3.38
2023-05-25T10:17:18.200Z,3.65
2023-05-25T10:22:22.486Z,3.47
2023-05-25T10:32:18.835Z,3.40
2023-05-25T10:37:12.772Z,3.10
2023-05-25T10:42:06.623Z,3.20
2023-05-25T10:47:02.951Z,2.85
2023-05-25T10:51:59.775Z,3.90
2023-05-25T10:57:14.280Z,3.20
2023-05-25T11:02:07.672Z,3.67
2023-05-25T11:07:08.354Z,3.38
2023-05-25T11:12:01.961Z,3.53
2023-05-25T11:17:12.924Z,3.55
2023-05-25T11:22:15.075Z,3.55
2023-05-25T11:27:08.970Z,3.13
2023-05-25T11:32:01.338Z,3.53
2023-05-25T11:37:04.044Z,3.07
2023-05-25T11:42:02.027Z,3.07
2023-05-25T11:46:57.556Z,4.03
2023-05-25T11:51:50.144Z,3.20
2023-05-25T11:56:42.413Z,3.67
2023-05-25T12:01:34.563Z,3.60
2023-05-25T12:06:33.554Z,3.67
2023-05-25T12:11:29.955Z,3.00
2023-05-25T12:16:24.560Z,3.33
2023-05-25T12:21:17.378Z,3.27
2023-05-25T12:26:12.018Z,3.00
2023-05-25T12:31:25.303Z,3.27
2023-05-25T12:36:17.435Z,2.73
2023-05-25T12:41:09.751Z,3.40
2023-05-25T12:46:02.011Z,3.33
2023-05-25T12:50:58.404Z,3.53
2023-05-25T12:55:50.651Z,3.27
2023-05-25T13:00:43.487Z,2.73
2023-05-25T13:05:37.795Z,3.50
2023-05-25T13:10:32.616Z,3.63
2023-05-25T13:15:26.649Z,3.30
2023-05-25T13:20:21.087Z,2.87
2023-05-25T13:25:13.843Z,3.30
2023-05-25T13:30:07.342Z,3.00
2023-05-25T13:35:00.210Z,2.87
2023-05-25T13:39:53.686Z,2.97
2023-05-25T13:44:45.656Z,3.67
2023-05-25T13:49:37.901Z,3.03
2023-05-25T13:54:30.106Z,3.17
2023-05-25T13:59:22.212Z,3.50
2023-05-25T14:04:17.353Z,3.57
2023-05-25T14:09:10.764Z,3.40
2023-05-25T14:14:13.829Z,3.57
2023-05-25T14:19:11.869Z,3.10
2023-05-25T14:24:04.112Z,3.43
2023-05-25T14:28:56.265Z,4.10
2023-05-25T14:33:48.431Z,3.80
2023-05-25T14:38:40.756Z,3.50
2023-05-25T14:43:33.287Z,3.30
2023-05-25T14:48:26.143Z,3.87
2023-05-25T14:53:18.641Z,4.40
2023-05-25T14:58:11.358Z,3.60
2023-05-25T15:03:03.630Z,3.77
2023-05-25T15:07:56.335Z,3.30
2023-05-25T15:12:48.658Z,3.70
2023-05-25T15:17:41.229Z,3.63
2023-05-25T15:22:33.459Z,4.20
2023-05-25T15:27:26.256Z,3.40
2023-05-25T15:32:18.396Z,3.50
2023-05-25T15:37:11.303Z,3.40
2023-05-25T15:42:05.225Z,3.40
2023-05-25T15:46:57.510Z,3.50
2023-05-25T15:51:49.632Z,3.80
2023-05-25T15:56:41.816Z,3.67
2023-05-25T16:01:34.624Z,4.13
2023-05-25T16:06:27.006Z,3.90
2023-05-25T16:11:19.418Z,3.87
2023-05-25T16:16:11.502Z,3.63
2023-05-25T16:21:03.873Z,4.10
2023-05-25T16:25:56.133Z,3.97
2023-05-25T16:30:48.280Z,4.63
2023-05-25T16:35:40.428Z,3.67
2023-05-25T16:40:33.625Z,5.40
2023-05-25T16:45:26.846Z,5.67
2023-05-25T16:50:19.028Z,3.87
2023-05-25T16:55:11.226Z,3.80
2023-05-25T17:00:03.330Z,4.10
2023-05-25T17:04:56.102Z,3.60
2023-05-25T17:09:48.314Z,4.10
2023-05-25T17:14:40.384Z,3.57
2023-05-25T17:19:32.474Z,3.37
2023-05-25T17:24:24.743Z,3.40
2023-05-25T17:29:17.050Z,3.00
2023-05-25T17:34:09.131Z,3.77
2023-05-25T17:39:01.359Z,3.43
2023-05-25T17:43:53.455Z,4.03
2023-05-25T17:48:45.841Z,3.77
2023-05-25T17:53:37.919Z,3.47
2023-05-25T17:58:30.092Z,3.93
2023-05-25T18:03:22.387Z,3.27
2023-05-25T18:08:14.493Z,3.57
2023-05-25T18:13:06.956Z,3.97
2023-05-25T18:18:00.762Z,4.20
2023-05-25T18:22:52.976Z,4.30
2023-05-25T18:27:45.112Z,3.50
2023-05-25T18:32:37.138Z,4.20
2023-05-25T18:37:31.236Z,4.90
2023-05-25T18:42:23.573Z,3.97
2023-05-25T18:47:15.807Z,4.20
2023-05-25T18:52:09.537Z,4.20
2023-05-25T18:57:01.686Z,4.07
2023-05-25T19:01:53.691Z,4.20
2023-05-25T19:06:46.777Z,4.67
2023-05-25T19:11:38.792Z,4.20
2023-05-25T19:16:31.151Z,3.97
2023-05-25T19:21:23.449Z,4.23
2023-05-25T19:26:16.282Z,4.40
2023-05-25T19:31:08.338Z,4.40
2023-05-25T19:36:00.353Z,4.50
2023-05-25T19:40:52.616Z,4.20
2023-05-25T19:45:44.909Z,4.83
2023-05-25T19:50:37.256Z,3.73
2023-05-25T19:55:29.402Z,3.67
2023-05-25T20:00:26.771Z,4.00
2023-05-25T20:05:21.076Z,3.80
2023-05-25T20:10:14.421Z,3.70
2023-05-25T20:15:09.381Z,4.20
2023-05-25T20:20:01.744Z,3.70
2023-05-25T20:24:58.616Z,4.70
2023-05-25T20:29:51.080Z,4.27
2023-05-25T20:34:43.299Z,4.90
2023-05-25T20:39:36.305Z,4.47
2023-05-25T20:44:28.874Z,3.43
2023-05-25T20:49:21.026Z,5.10
2023-05-25T20:54:13.439Z,4.03
2023-05-25T20:59:07.052Z,5.80
2023-05-25T21:03:59.373Z,4.47
2023-05-25T21:08:52.975Z,4.03
2023-05-25T21:13:45.774Z,4.43
2023-05-25T21:18:38.046Z,4.10
2023-05-25T21:23:30.742Z,4.47
2023-05-25T21:28:24.247Z,4.90
2023-05-25T21:33:16.608Z,4.10
2023-05-25T21:38:08.979Z,5.43
2023-05-25T21:43:01.371Z,5.00
2023-05-25T21:47:53.650Z,4.67
2023-05-25T21:52:46.149Z,4.37
2023-05-25T21:57:38.309Z,4.03
2023-05-25T22:02:30.558Z,4.67
2023-05-25T22:07:22.795Z,4.83
2023-05-25T22:12:15.138Z,5.10
2023-05-25T22:17:08.513Z,4.80
2023-05-25T22:22:02.149Z,5.10
2023-05-25T22:26:54.368Z,5.10
2023-05-25T22:31:46.474Z,5.40
2023-05-25T22:36:38.546Z,4.90
2023-05-25T22:41:30.555Z,5.30
2023-05-25T22:46:23.378Z,6.03
2023-05-25T22:51:15.586Z,5.67
2023-05-25T22:56:07.802Z,6.70
2023-05-25T23:01:00.060Z,5.53
2023-05-25T23:05:52.292Z,5.23
2023-05-25T23:10:44.444Z,5.10
2023-05-25T23:15:39.973Z,5.50
2023-05-25T23:20:35.106Z,4.50
2023-05-25T23:25:27.188Z,6.00
2023-05-25T23:30:20.620Z,5.33
2023-05-25T23:35:12.627Z,4.97
2023-05-25T23:40:06.450Z,5.07
2023-05-25T23:44:58.567Z,5.60
2023-05-25T23:49:50.667Z,5.37
2023-05-25T23:54:42.737Z,5.13
2023-05-25T23:59:34.828Z,5.73
